WetterOnline ( http://www.wetteronline.at )

Wetter aktuell Prenzlau

Aktuelles Wetter: Grünow (57m)

6-stündlich | Neueste Meldungen
Ortszeit Temperatur Wetter
So, 18.11. 13:00 2.3° C Sprühregen
So, 18.11. 7:00 -3.0° C bedeckt
So, 18.11. 1:00 -2.0° C wolkenlos
Sa, 17.11. 19:00 2.1° C wolkenlos
Sa, 17.11. 13:00 4.6° C wolkenlos
Sa, 17.11. 7:00 -0.2° C wolkenlos
Sa, 17.11. 1:00 2.0° C wolkenlos
Fr, 16.11. 19:00 5.4° C bedeckt
Ortszeit Temperatur Wetter
So, 18.11. 18:30 4.8° C Sprühregen
So, 18.11. 18:20 4.8° C Sprühregen
So, 18.11. 18:10 4.7° C bedeckt
So, 18.11. 18:00 4.6° C leichter Regen
So, 18.11. 17:50 4.6° C leichter Regen
So, 18.11. 17:40 4.7° C bewölkt
So, 18.11. 17:30 4.0° C bedeckt
So, 18.11. 17:00 4.2° C bewölkt
So, 18.11. 16:30 3.8° C bedeckt
So, 18.11. 16:00 2.9° C bedeckt
So, 18.11. 15:30 2.5° C Nebel
Ortszeit Relative Feuchte Sichtweite
So, 18.11. 13:00 96% 2.3 km
So, 18.11. 7:00 94% 7 km
So, 18.11. 1:00 90% 11 km
Sa, 17.11. 19:00 76% 15 km
Sa, 17.11. 13:00 70% 17 km
Sa, 17.11. 7:00 92% 7 km
Sa, 17.11. 1:00 84% 19 km
Fr, 16.11. 19:00 74% 35 km
Ortszeit Relative Feuchte Sichtweite
So, 18.11. 18:30 93% 12 km
So, 18.11. 18:20 93% -
So, 18.11. 18:10 92% -
So, 18.11. 18:00 90% 30 km
So, 18.11. 17:50 90% -
So, 18.11. 17:40 89% -
So, 18.11. 17:30 92% 26 km
So, 18.11. 17:00 94% 15 km
So, 18.11. 16:30 97% 9 km
So, 18.11. 16:00 99% 1.8 km
So, 18.11. 15:30 99% 0.6 km
Ortszeit Niederschlagsmenge Niederschlagsart
So, 18.11. 13:00 0.1 l/m2 in 6 Std. Sprühregen
So, 18.11. 7:00 0.0 l/m2 in 12 Std. -
So, 18.11. 1:00 0.0 l/m2 in 6 Std. -
Sa, 17.11. 19:00 0.0 l/m2 in 12 Std. -
Sa, 17.11. 13:00 0.0 l/m2 in 6 Std. -
Sa, 17.11. 7:00 0.0 l/m2 in 12 Std. -
Sa, 17.11. 1:00 0.0 l/m2 in 6 Std. -
Fr, 16.11. 19:00 0.0 l/m2 in 12 Std. -
Ortszeit Niederschlagsmenge Niederschlagsart
So, 18.11. 18:30 0.1 l/m2 in 1 Std. -
So, 18.11. 18:20 keine Meldung -
So, 18.11. 18:10 keine Meldung -
So, 18.11. 18:00 0.1 l/m2 in 1 Std. Regen
So, 18.11. 17:50 keine Meldung -
So, 18.11. 17:40 keine Meldung -
So, 18.11. 17:30 0.1 l/m2 in 1 Std. Schneeregen
So, 18.11. 17:00 0.1 l/m2 in 1 Std. Sprühregen
So, 18.11. 16:30 0.0 l/m2 in 1 Std. -
So, 18.11. 16:00 0.0 l/m2 in 1 Std. Regen
So, 18.11. 15:30 0.0 l/m2 in 1 Std. -
Ortszeit Stärke Spitze Richtung
km/h Bft. km/h Grad Sektor
So, 18.11. 13:00 7 2 9 360° N
So, 18.11. 7:00 0 0 11 - -
So, 18.11. 1:00 6 1 20 350° N
Sa, 17.11. 19:00 13 3 20 90° O
Sa, 17.11. 13:00 13 3 24 110° O
Sa, 17.11. 7:00 7 2 25 80° O
Sa, 17.11. 1:00 17 3 33 110° O
Fr, 16.11. 19:00 22 4 29 120° SO
Ortszeit Stärke Spitze Richtung
km/h Bft. km/h Grad Sektor
So, 18.11. 18:30 20 4 26 20° N
So, 18.11. 18:20 20 4 - 20° N
So, 18.11. 18:10 19 3 - 10° N
So, 18.11. 18:00 18 3 25 10° N
So, 18.11. 17:50 18 3 - 10° N
So, 18.11. 17:40 18 3 - 20° N
So, 18.11. 17:30 14 3 22 20° N
So, 18.11. 17:00 11 2 22 10° N
So, 18.11. 16:30 11 2 14 20° N
So, 18.11. 16:00 6 1 13 350° N
So, 18.11. 15:30 7 2 14 330° NW
Ortszeit Untergrenze Bedeckung Gattung
total tief tief mittel hoch
So, 18.11. 13:00 210 m 8/8 8/8 - - -
So, 18.11. 7:00 2100 m 8/8 8/8 - - -
So, 18.11. 1:00 - 0/8 0/8 - - -
Sa, 17.11. 19:00 - 0/8 0/8 - - -
Sa, 17.11. 13:00 - 0/8 0/8 - - -
Sa, 17.11. 7:00 - 0/8 0/8 - - -
Sa, 17.11. 1:00 - 0/8 0/8 - - -
Fr, 16.11. 19:00 630 m 8/8 8/8 - - -
Ortszeit Bedeckungsgrad in Achtel und Wolkenuntergrenze
So, 18.11. 18:30 3(330m) 8(1050m) 8(1410m)
So, 18.11. 18:20 3(330m) 8(1050m) 8(1410m)
So, 18.11. 18:10 4(450m) 8(960m) 8(1290m)
So, 18.11. 18:00 2(510m) 7(1200m) 7(1410m)
So, 18.11. 17:50 2(510m) 7(1200m) 7(1410m)
So, 18.11. 17:40 1(540m) 7(1230m) 7(1470m)
So, 18.11. 17:30 1(840m) 7(1200m) 8(1500m)
So, 18.11. 17:00 3(1050m) 7(1260m)
So, 18.11. 16:30 2(870m) 8(1320m)
So, 18.11. 16:00 1(30m) 8(1230m)
So, 18.11. 15:30 8(<30m) 8(690m) 8(1110m)
Ortszeit Luftdruck NN (hPa) Tendenz (hPa in 3 Std.)
So, 18.11. 13:00 1031 - 2,2
So, 18.11. 7:00 1035 - 1,6
So, 18.11. 1:00 1038 - 0,8
Sa, 17.11. 19:00 1039 - 0,9
Sa, 17.11. 13:00 1040 - 0,5
Sa, 17.11. 7:00 1040 + 0,3
Sa, 17.11. 1:00 1039 + 0,5
Fr, 16.11. 19:00 1038 + 0,7
Ortszeit Luftdruck NN (hPa) Tendenz (hPa in 3 Std.)
So, 18.11. 18:30 1028 - 1,2
So, 18.11. 18:20 1028 keine Meldung
So, 18.11. 18:10 1028 keine Meldung
So, 18.11. 18:00 1029 - 1,2
So, 18.11. 17:50 1029 keine Meldung
So, 18.11. 17:40 1029 keine Meldung
So, 18.11. 17:30 1029 - 1,6
So, 18.11. 17:00 1029 - 1,7
So, 18.11. 16:30 1029 - 1,5
So, 18.11. 16:00 1029 - 1,6
So, 18.11. 15:30 1029 - 1,8
Ortszeit Schneehöhe (cm)
So, 18.11. 13:00 0
So, 18.11. 7:00 0
So, 18.11. 1:00 0
Sa, 17.11. 19:00 0
Sa, 17.11. 13:00 0
Sa, 17.11. 7:00 0
Sa, 17.11. 1:00 0
Fr, 16.11. 19:00 0
Ortszeit Schneehöhe (cm)
So, 18.11. 18:30 0
So, 18.11. 18:20 0
So, 18.11. 18:10 0
So, 18.11. 18:00 0
So, 18.11. 17:50 0
So, 18.11. 17:40 0
So, 18.11. 17:30 0
So, 18.11. 17:00 0
So, 18.11. 16:30 0
So, 18.11. 16:00 0
So, 18.11. 15:30 0
Link zu dieser Seite / Seite empfehlen

Das Wetter in ...